Madison, MN

10:57 PM CDT on May 22, 2017 (GMT -0500)
Madison-Lac Qui Parle County

Weather History for KDXX - January, 2013

Change the Weather History Date:

Thursday, January 24, 2013

  Actual Average (KAQP) Record (KAQP)
Temperature  
Mean Temperature 2 °F -  
Max Temperature 14 °F 17 °F 37 °F (2014)
Min Temperature -9 °F 2 °F -20 °F (2009)
Degree Days  
Heating Degree Days 62    
Moisture  
Dew Point -6 °F    
Average Humidity 69    
Maximum Humidity 79    
Minimum Humidity 65    
Precipitation  
Precipitation 0.00 in - - ()
Sea Level Pressure  
Sea Level Pressure 30.38 in    
Wind  
Wind Speed 10 mph (SE)    
Max Wind Speed 23 mph    
Max Gust Speed 26 mph    
Visibility 10 miles    
Events      
Averages and records for this station are not official NWS values.
T = Trace of Precipitation, MM = Missing Value Source: NWS Daily Summary

Daily Weather History Graph

Daily Weather History Graph

Search for Another Location

Airport or City:

Trip Planner

Search our weather history database for the weather conditions in past years. The results will help you decide how hot, cold, wet, or windy it might be!

Date:

Astronomy

Jan. 24, 2013 Rise Set
Actual Time 7:52 AM CST 5:21 PM CST
Civil Twilight 7:20 AM CST 5:53 PM CST
Nautical Twilight 6:44 AM CST 6:29 PM CST
Astronomical Twilight 6:10 AM CST 7:04 PM CST
Moon 3:23 PM CST (1/24) 5:52 AM CST (1/24)
Length of Visible Light 10h 33m
Length of Day
9h 29m
Waxing Gibbous, 94% of the Moon is Illuminated
Jan 24
Waxing Gibbous
Jan 26
Full
Feb 3
Last Quarter
Feb 10
New
Feb 17
First Quarter

Hourly Weather History & Observations

Time (CST) Temp. Windchill Dew Point Humidity Pressure Visibility Wind Dir Wind Speed Gust Speed Precip Events Conditions
12:14 AM -9.4 °F -25.6 °F -18.4 °F 65% 30.61 in 10.0 mi North 8.1 mph - N/A   Clear
12:34 AM -9.4 °F -25.6 °F -18.4 °F 65% 30.62 in 10.0 mi North 8.1 mph - N/A   Clear
12:53 AM -9.4 °F -24.3 °F -18.4 °F 65% 30.61 in 10.0 mi North 6.9 mph - N/A   Clear
1:14 AM -9.4 °F -22.7 °F -16.6 °F 71% 30.62 in 10.0 mi North 5.8 mph - N/A   Clear
1:33 AM -9.4 °F -22.7 °F -16.6 °F 71% 30.61 in 10.0 mi NNE 5.8 mph - N/A   Clear
1:54 AM -9.4 °F -20.9 °F -16.6 °F 71% 30.62 in 10.0 mi North 4.6 mph - N/A   Clear
2:14 AM -9.4 °F -18.6 °F -16.6 °F 71% 30.64 in 10.0 mi NW 3.5 mph - N/A   Clear
2:33 AM -9.4 °F - -16.6 °F 71% 30.64 in 10.0 mi Calm Calm - N/A   Clear
2:54 AM -7.6 °F -16.5 °F -16.6 °F 65% 30.63 in 10.0 mi North 3.5 mph - N/A   Clear
3:14 AM -7.6 °F -18.8 °F -16.6 °F 65% 30.62 in 10.0 mi NNE 4.6 mph - N/A   Clear
3:33 AM -7.6 °F -18.8 °F -16.6 °F 65% 30.60 in 10.0 mi NE 4.6 mph - N/A   Clear
3:54 AM -7.6 °F -18.8 °F -16.6 °F 65% 30.60 in 10.0 mi ENE 4.6 mph - N/A   Clear
4:14 AM -7.6 °F -20.6 °F -16.6 °F 65% 30.60 in 10.0 mi ENE 5.8 mph - N/A   Clear
4:33 AM -7.6 °F -16.5 °F -16.6 °F 65% 30.59 in 10.0 mi East 3.5 mph - N/A   Clear
4:54 AM -7.6 °F -16.5 °F -14.8 °F 71% 30.59 in 10.0 mi ESE 3.5 mph - N/A   Mostly Cloudy
5:14 AM -7.6 °F -22.1 °F -14.8 °F 71% 30.57 in 10.0 mi ESE 6.9 mph - N/A   Mostly Cloudy
5:33 AM -7.6 °F -16.5 °F -14.8 °F 71% 30.59 in 10.0 mi SE 3.5 mph - N/A   Overcast
5:54 AM -5.8 °F -14.5 °F -14.8 °F 65% 30.60 in 10.0 mi SSE 3.5 mph - N/A   Overcast
6:14 AM -5.8 °F -16.7 °F -14.8 °F 65% 30.61 in 10.0 mi South 4.6 mph - N/A   Scattered Clouds
6:33 AM -5.8 °F -14.5 °F -14.8 °F 65% 30.60 in 10.0 mi SE 3.5 mph - N/A   Scattered Clouds
6:54 AM -5.8 °F -18.4 °F -14.8 °F 65% 30.60 in 10.0 mi SSE 5.8 mph - N/A   Scattered Clouds
7:14 AM -5.8 °F -21.2 °F -14.8 °F 65% 30.59 in 10.0 mi SE 8.1 mph - N/A   Clear
7:33 AM -5.8 °F -24.4 °F -14.8 °F 65% 30.55 in 10.0 mi ESE 11.5 mph - N/A   Clear
7:54 AM -5.8 °F -24.4 °F -13.0 °F 71% 30.53 in 10.0 mi ESE 11.5 mph - N/A   Clear
8:14 AM -5.8 °F -26.0 °F -13.0 °F 71% 30.52 in 10.0 mi SE 13.8 mph - N/A   Clear
8:33 AM -5.8 °F -25.2 °F -13.0 °F 71% 30.52 in 10.0 mi SE 12.7 mph - N/A   Clear
8:54 AM -4.0 °F -23.0 °F -11.2 °F 71% 30.52 in 10.0 mi SE 12.7 mph - N/A   Clear
9:14 AM -4.0 °F -23.7 °F -11.2 °F 71% 30.51 in 10.0 mi SSE 13.8 mph - N/A   Clear
9:33 AM -2.2 °F -22.9 °F -11.2 °F 66% 30.51 in 10.0 mi SSE 16.1 mph - N/A   Clear
9:53 AM -2.2 °F -22.2 °F -9.4 °F 71% 30.50 in 10.0 mi SSE 15.0 mph - N/A   Clear
10:14 AM -2.2 °F -22.2 °F -9.4 °F 71% 30.51 in 10.0 mi SSE 15.0 mph - N/A   Clear
10:33 AM -0.4 °F -21.7 °F -9.4 °F 66% 30.49 in 10.0 mi SSE 18.4 mph - N/A   Clear
10:53 AM -0.4 °F -20.5 °F -7.6 °F 72% 30.49 in 10.0 mi SSE 16.1 mph - N/A   Clear
11:14 AM -0.4 °F -21.2 °F -7.6 °F 72% 30.47 in 10.0 mi SSE 17.3 mph - N/A   Clear
11:33 AM -0.4 °F -21.7 °F -7.6 °F 72% 30.45 in 10.0 mi SSE 18.4 mph - N/A   Clear
11:53 AM 1.4 °F -18.8 °F -5.8 °F 72% 30.43 in 10.0 mi SE 17.3 mph - N/A   Clear
12:14 PM 1.4 °F -19.4 °F -5.8 °F 72% 30.41 in 10.0 mi SSE 18.4 mph - N/A   Clear
12:33 PM 3.2 °F -16.5 °F -5.8 °F 66% 30.41 in 10.0 mi SSE 17.3 mph - N/A   Clear
12:54 PM 3.2 °F -15.3 °F -4.0 °F 72% 30.40 in 10.0 mi SSE 15.0 mph - N/A   Clear
1:14 PM 5.0 °F -14.7 °F -2.2 °F 72% 30.36 in 10.0 mi SSE 18.4 mph - N/A   Clear
1:33 PM 6.8 °F -12.4 °F -2.2 °F 67% 30.34 in 10.0 mi SE 18.4 mph - N/A   Clear
1:54 PM 6.8 °F -12.9 °F -2.2 °F 67% 30.31 in 10.0 mi SE 19.6 mph - N/A   Clear
2:14 PM 8.6 °F -8.9 °F -0.4 °F 67% 30.30 in 10.0 mi SE 16.1 mph - N/A   Clear
2:33 PM 8.6 °F -10.5 °F -0.4 °F 67% 30.29 in 10.0 mi SE 19.6 mph - N/A   Clear
2:54 PM 8.6 °F -10.5 °F -0.4 °F 67% 30.27 in 10.0 mi SE 19.6 mph 23.0 mph N/A   Clear
3:14 PM 8.6 °F -8.9 °F -0.4 °F 67% 30.27 in 10.0 mi SE 16.1 mph 21.9 mph N/A   Clear
3:33 PM 8.6 °F -10.5 °F -0.4 °F 67% 30.25 in 10.0 mi SE 19.6 mph - N/A   Clear
3:54 PM 10.4 °F -8.6 °F 1.4 °F 67% 30.23 in 10.0 mi SSE 20.7 mph - N/A   Clear
4:14 PM 10.4 °F -8.6 °F 1.4 °F 67% 30.21 in 10.0 mi SSE 20.7 mph - N/A   Scattered Clouds
4:33 PM 10.4 °F -7.7 °F 1.4 °F 67% 30.21 in 10.0 mi SSE 18.4 mph - N/A   Mostly Cloudy
4:54 PM 10.4 °F -8.6 °F 1.4 °F 67% 30.22 in 10.0 mi SE 20.7 mph - N/A   Mostly Cloudy
5:13 PM 10.4 °F -8.6 °F 1.4 °F 67% 30.19 in 10.0 mi SE 20.7 mph - N/A   Scattered Clouds
5:34 PM 10.4 °F -7.7 °F 1.4 °F 67% 30.18 in 10.0 mi SE 18.4 mph 25.3 mph N/A   Clear
5:53 PM 12.2 °F -5.8 °F 3.2 °F 67% 30.16 in 10.0 mi SSE 19.6 mph - N/A   Clear
6:14 PM 12.2 °F -4.8 °F 3.2 °F 67% 30.18 in 10.0 mi SSE 17.3 mph - N/A   Clear
6:34 PM 12.2 °F -7.1 °F 3.2 °F 67% 30.14 in 10.0 mi SSE 23.0 mph - N/A   Clear
6:53 PM 12.2 °F -5.3 °F 3.2 °F 67% 30.15 in 10.0 mi South 18.4 mph - N/A   Clear
7:14 PM 12.2 °F -4.8 °F 3.2 °F 67% 30.13 in 10.0 mi South 17.3 mph - N/A   Mostly Cloudy
7:34 PM 12.2 °F -4.8 °F 3.2 °F 67% 30.12 in 10.0 mi South 17.3 mph 24.2 mph N/A   Scattered Clouds
7:53 PM 12.2 °F -5.3 °F 3.2 °F 67% 30.12 in 10.0 mi South 18.4 mph - N/A   Mostly Cloudy
8:14 PM 12.2 °F -5.8 °F 3.2 °F 67% 30.11 in 10.0 mi South 19.6 mph 26.5 mph N/A   Scattered Clouds
8:34 PM 12.2 °F -2.5 °F 5.0 °F 73% 30.12 in 10.0 mi South 12.7 mph - N/A   Clear
8:53 PM 12.2 °F -3.1 °F 5.0 °F 73% 30.13 in 10.0 mi South 13.8 mph - N/A   Clear
9:14 PM 14.0 °F -0.8 °F 5.0 °F 67% 30.12 in 10.0 mi South 13.8 mph - N/A   Clear
9:34 PM 14.0 °F -0.8 °F 5.0 °F 67% 30.12 in 10.0 mi South 13.8 mph - N/A   Mostly Cloudy
9:53 PM 14.0 °F 0.5 °F 6.8 °F 73% 30.12 in 10.0 mi South 11.5 mph - N/A   Overcast
10:14 PM 14.0 °F -0.2 °F 6.8 °F 73% 30.09 in 10.0 mi South 12.7 mph - N/A   Mostly Cloudy
10:34 PM 14.0 °F 1.2 °F 6.8 °F 73% 30.08 in 10.0 mi South 10.4 mph - N/A   Scattered Clouds
10:53 PM 12.2 °F -1.8 °F 6.8 °F 79% 30.07 in 10.0 mi South 11.5 mph - N/A   Scattered Clouds
11:14 PM 14.0 °F 2.0 °F 6.8 °F 73% 30.07 in 10.0 mi South 9.2 mph - N/A   Mostly Cloudy
11:34 PM 14.0 °F 1.2 °F 6.8 °F 73% 30.07 in 10.0 mi South 10.4 mph - N/A   Overcast
11:53 PM 14.0 °F 2.9 °F 6.8 °F 73% 30.06 in 10.0 mi South 8.1 mph - N/A   Scattered Clouds